sensor_id;sensor_type;location;lat;lon;timestamp;pressure;altitude;pressure_sealevel;temperature;humidity
46464;BME280;32161;48.148;-1.554;2023-03-24T00:02:13;99704.28;;;11.55;97.36
46464;BME280;32161;48.148;-1.554;2023-03-24T00:04:41;99702.63;;;11.48;97.49
46464;BME280;32161;48.148;-1.554;2023-03-24T00:07:10;99703.69;;;11.47;97.89
46464;BME280;32161;48.148;-1.554;2023-03-24T00:09:40;99720.53;;;11.44;98.06
46464;BME280;32161;48.148;-1.554;2023-03-24T00:12:08;99718.41;;;11.46;98.11
46464;BME280;32161;48.148;-1.554;2023-03-24T00:14:37;99707.44;;;11.41;98.02
46464;BME280;32161;48.148;-1.554;2023-03-24T00:17:05;99708.75;;;11.34;98.61
46464;BME280;32161;48.148;-1.554;2023-03-24T00:19:36;99717.50;;;11.36;98.71
46464;BME280;32161;48.148;-1.554;2023-03-24T00:22:04;99713.97;;;11.40;97.90
46464;BME280;32161;48.148;-1.554;2023-03-24T00:24:33;99723.25;;;11.39;98.06
46464;BME280;32161;48.148;-1.554;2023-03-24T00:27:01;99724.53;;;11.32;97.67
46464;BME280;32161;48.148;-1.554;2023-03-24T00:29:28;99731.31;;;11.29;98.42
46464;BME280;32161;48.148;-1.554;2023-03-24T00:31:56;99733.47;;;11.27;98.80
46464;BME280;32161;48.148;-1.554;2023-03-24T00:34:24;99739.94;;;11.21;98.86
46464;BME280;32161;48.148;-1.554;2023-03-24T00:36:53;99742.63;;;11.16;99.26
46464;BME280;32161;48.148;-1.554;2023-03-24T00:39:21;99745.19;;;11.28;98.38
46464;BME280;32161;48.148;-1.554;2023-03-24T00:41:49;99741.38;;;11.29;98.82
46464;BME280;32161;48.148;-1.554;2023-03-24T00:44:17;99743.44;;;11.16;99.49
46464;BME280;32161;48.148;-1.554;2023-03-24T00:46:45;99742.13;;;11.19;99.51
46464;BME280;32161;48.148;-1.554;2023-03-24T00:49:21;99739.66;;;11.17;99.12
46464;BME280;32161;48.148;-1.554;2023-03-24T00:52:09;99751.31;;;11.13;99.28
46464;BME280;32161;48.148;-1.554;2023-03-24T00:54:37;99749.09;;;11.10;99.71
46464;BME280;32161;48.148;-1.554;2023-03-24T00:57:06;99762.63;;;10.99;99.50
46464;BME280;32161;48.148;-1.554;2023-03-24T00:59:34;99764.06;;;11.07;99.55
46464;BME280;32161;48.148;-1.554;2023-03-24T01:02:07;99765.41;;;11.10;99.82
46464;BME280;32161;48.148;-1.554;2023-03-24T01:04:37;99766.22;;;11.10;99.81
46464;BME280;32161;48.148;-1.554;2023-03-24T01:07:07;99771.09;;;11.03;100.00
46464;BME280;32161;48.148;-1.554;2023-03-24T01:09:36;99773.38;;;10.89;100.00
46464;BME280;32161;48.148;-1.554;2023-03-24T01:12:05;99778.19;;;10.82;100.00
46464;BME280;32161;48.148;-1.554;2023-03-24T01:14:33;99768.28;;;10.98;100.00
46464;BME280;32161;48.148;-1.554;2023-03-24T01:17:01;99770.53;;;11.06;99.99
46464;BME280;32161;48.148;-1.554;2023-03-24T01:19:28;99768.50;;;10.91;100.00
46464;BME280;32161;48.148;-1.554;2023-03-24T01:21:58;99757.94;;;10.95;100.00
46464;BME280;32161;48.148;-1.554;2023-03-24T01:24:27;99766.09;;;10.95;100.00
46464;BME280;32161;48.148;-1.554;2023-03-24T01:26:54;99760.78;;;11.10;100.00
46464;BME280;32161;48.148;-1.554;2023-03-24T01:29:22;99763.31;;;10.90;100.00
46464;BME280;32161;48.148;-1.554;2023-03-24T01:31:50;99768.88;;;11.00;100.00
46464;BME280;32161;48.148;-1.554;2023-03-24T01:34:17;99767.47;;;10.97;100.00
46464;BME280;32161;48.148;-1.554;2023-03-24T01:36:45;99766.66;;;10.97;100.00
46464;BME280;32161;48.148;-1.554;2023-03-24T01:39:13;99764.22;;;10.95;100.00
46464;BME280;32161;48.148;-1.554;2023-03-24T01:41:42;99761.72;;;10.94;100.00
46464;BME280;32161;48.148;-1.554;2023-03-24T01:44:34;99757.34;;;10.88;100.00
46464;BME280;32161;48.148;-1.554;2023-03-24T01:47:06;99761.03;;;10.77;100.00
46464;BME280;32161;48.148;-1.554;2023-03-24T01:49:37;99756.25;;;10.89;100.00
46464;BME280;32161;48.148;-1.554;2023-03-24T01:52:09;99757.06;;;10.89;100.00
46464;BME280;32161;48.148;-1.554;2023-03-24T01:54:41;99758.63;;;10.80;100.00
46464;BME280;32161;48.148;-1.554;2023-03-24T01:57:15;99762.06;;;10.75;100.00
46464;BME280;32161;48.148;-1.554;2023-03-24T01:59:48;99773.75;;;10.76;100.00
46464;BME280;32161;48.148;-1.554;2023-03-24T02:02:18;99777.06;;;10.78;100.00
46464;BME280;32161;48.148;-1.554;2023-03-24T02:04:51;99775.66;;;10.75;100.00
46464;BME280;32161;48.148;-1.554;2023-03-24T02:07:31;99776.78;;;10.80;100.00
46464;BME280;32161;48.148;-1.554;2023-03-24T02:10:00;99774.69;;;10.87;100.00
46464;BME280;32161;48.148;-1.554;2023-03-24T02:12:32;99771.66;;;10.83;100.00
46464;BME280;32161;48.148;-1.554;2023-03-24T02:15:00;99769.88;;;10.94;100.00
46464;BME280;32161;48.148;-1.554;2023-03-24T02:17:49;99774.19;;;10.90;99.78
46464;BME280;32161;48.148;-1.554;2023-03-24T02:26:47;99781.22;;;10.86;100.00
46464;BME280;32161;48.148;-1.554;2023-03-24T02:36:53;99778.16;;;10.77;100.00
46464;BME280;32161;48.148;-1.554;2023-03-24T02:42:44;99776.47;;;10.76;100.00
46464;BME280;32161;48.148;-1.554;2023-03-24T02:45:25;99777.09;;;10.83;100.00
46464;BME280;32161;48.148;-1.554;2023-03-24T02:48:22;99777.03;;;10.73;100.00
46464;BME280;32161;48.148;-1.554;2023-03-24T02:50:59;99776.44;;;10.71;100.00
46464;BME280;32161;48.148;-1.554;2023-03-24T02:53:36;99773.84;;;10.81;100.00
46464;BME280;32161;48.148;-1.554;2023-03-24T02:56:11;99774.16;;;10.85;100.00
46464;BME280;32161;48.148;-1.554;2023-03-24T02:58:44;99772.75;;;10.82;100.00
46464;BME280;32161;48.148;-1.554;2023-03-24T03:01:18;99769.41;;;10.75;100.00
46464;BME280;32161;48.148;-1.554;2023-03-24T03:04:01;99770.22;;;10.75;100.00
46464;BME280;32161;48.148;-1.554;2023-03-24T03:06:33;99772.72;;;10.77;100.00
46464;BME280;32161;48.148;-1.554;2023-03-24T03:09:06;99771.44;;;10.85;100.00
46464;BME280;32161;48.148;-1.554;2023-03-24T03:11:38;99767.91;;;10.84;100.00
46464;BME280;32161;48.148;-1.554;2023-03-24T03:14:10;99765.41;;;10.83;100.00
46464;BME280;32161;48.148;-1.554;2023-03-24T03:16:44;99774.84;;;10.75;100.00
46464;BME280;32161;48.148;-1.554;2023-03-24T03:19:18;99773.47;;;10.72;100.00
46464;BME280;32161;48.148;-1.554;2023-03-24T03:21:48;99770.75;;;10.72;100.00
46464;BME280;32161;48.148;-1.554;2023-03-24T03:24:19;99772.28;;;10.90;100.00
46464;BME280;32161;48.148;-1.554;2023-03-24T03:26:55;99765.63;;;10.76;100.00
46464;BME280;32161;48.148;-1.554;2023-03-24T03:29:29;99776.78;;;10.80;100.00
46464;BME280;32161;48.148;-1.554;2023-03-24T03:32:02;99768.09;;;10.78;100.00
46464;BME280;32161;48.148;-1.554;2023-03-24T03:34:39;99770.44;;;10.69;100.00
46464;BME280;32161;48.148;-1.554;2023-03-24T03:37:19;99775.94;;;10.74;100.00
46464;BME280;32161;48.148;-1.554;2023-03-24T03:39:55;99779.00;;;10.83;100.00
46464;BME280;32161;48.148;-1.554;2023-03-24T03:42:26;99779.16;;;10.71;100.00
46464;BME280;32161;48.148;-1.554;2023-03-24T03:44:53;99781.06;;;10.70;100.00
46464;BME280;32161;48.148;-1.554;2023-03-24T03:47:21;99785.09;;;10.68;100.00
46464;BME280;32161;48.148;-1.554;2023-03-24T03:49:50;99788.94;;;10.72;100.00
46464;BME280;32161;48.148;-1.554;2023-03-24T03:52:18;99786.50;;;10.70;100.00
46464;BME280;32161;48.148;-1.554;2023-03-24T03:54:48;99788.94;;;10.72;100.00
46464;BME280;32161;48.148;-1.554;2023-03-24T03:57:17;99801.47;;;10.73;100.00
46464;BME280;32161;48.148;-1.554;2023-03-24T03:59:47;99802.97;;;10.86;100.00
46464;BME280;32161;48.148;-1.554;2023-03-24T04:02:30;99805.84;;;10.74;100.00
46464;BME280;32161;48.148;-1.554;2023-03-24T04:05:22;99815.63;;;10.75;100.00
46464;BME280;32161;48.148;-1.554;2023-03-24T04:08:13;99806.69;;;10.80;100.00
46464;BME280;32161;48.148;-1.554;2023-03-24T04:11:31;99803.47;;;10.83;100.00
46464;BME280;32161;48.148;-1.554;2023-03-24T04:14:24;99811.28;;;10.74;100.00
46464;BME280;32161;48.148;-1.554;2023-03-24T04:17:06;99809.69;;;10.78;100.00
46464;BME280;32161;48.148;-1.554;2023-03-24T04:19:52;99815.44;;;10.82;100.00
46464;BME280;32161;48.148;-1.554;2023-03-24T04:22:38;99817.53;;;10.74;100.00
46464;BME280;32161;48.148;-1.554;2023-03-24T04:25:14;99811.81;;;10.76;100.00
46464;BME280;32161;48.148;-1.554;2023-03-24T04:27:54;99810.03;;;10.87;100.00
46464;BME280;32161;48.148;-1.554;2023-03-24T04:30:30;99817.03;;;10.78;100.00
46464;BME280;32161;48.148;-1.554;2023-03-24T04:33:05;99823.13;;;10.90;100.00
46464;BME280;32161;48.148;-1.554;2023-03-24T04:35:39;99821.41;;;10.84;100.00
46464;BME280;32161;48.148;-1.554;2023-03-24T04:38:13;99821.13;;;10.80;100.00
46464;BME280;32161;48.148;-1.554;2023-03-24T04:40:45;99824.03;;;10.95;99.96
46464;BME280;32161;48.148;-1.554;2023-03-24T04:43:19;99828.75;;;10.83;100.00
46464;BME280;32161;48.148;-1.554;2023-03-24T04:45:50;99834.66;;;10.75;100.00
46464;BME280;32161;48.148;-1.554;2023-03-24T04:48:19;99826.00;;;10.78;100.00
46464;BME280;32161;48.148;-1.554;2023-03-24T04:50:53;99824.72;;;10.86;100.00
46464;BME280;32161;48.148;-1.554;2023-03-24T04:53:21;99825.81;;;10.63;100.00
46464;BME280;32161;48.148;-1.554;2023-03-24T04:56:01;99824.50;;;10.65;100.00
46464;BME280;32161;48.148;-1.554;2023-03-24T04:58:31;99832.56;;;10.82;100.00
46464;BME280;32161;48.148;-1.554;2023-03-24T05:00:59;99811.94;;;10.86;100.00
46464;BME280;32161;48.148;-1.554;2023-03-24T05:03:29;99830.16;;;10.86;100.00
46464;BME280;32161;48.148;-1.554;2023-03-24T05:05:57;99827.31;;;10.75;100.00
46464;BME280;32161;48.148;-1.554;2023-03-24T05:08:25;99836.50;;;10.69;100.00
46464;BME280;32161;48.148;-1.554;2023-03-24T05:10:52;99850.47;;;10.78;100.00
46464;BME280;32161;48.148;-1.554;2023-03-24T05:13:20;99848.59;;;10.84;100.00
46464;BME280;32161;48.148;-1.554;2023-03-24T05:15:47;99844.06;;;10.67;100.00
46464;BME280;32161;48.148;-1.554;2023-03-24T05:18:15;99841.50;;;10.78;100.00
46464;BME280;32161;48.148;-1.554;2023-03-24T05:20:44;99844.56;;;10.86;100.00
46464;BME280;32161;48.148;-1.554;2023-03-24T05:23:11;99851.84;;;10.81;100.00
46464;BME280;32161;48.148;-1.554;2023-03-24T05:25:39;99855.56;;;10.74;100.00
46464;BME280;32161;48.148;-1.554;2023-03-24T05:28:06;99866.81;;;10.83;100.00
46464;BME280;32161;48.148;-1.554;2023-03-24T05:30:34;99849.31;;;10.74;100.00
46464;BME280;32161;48.148;-1.554;2023-03-24T05:33:02;99859.00;;;10.65;100.00
46464;BME280;32161;48.148;-1.554;2023-03-24T05:35:29;99861.28;;;10.73;100.00
46464;BME280;32161;48.148;-1.554;2023-03-24T05:37:58;99870.56;;;10.77;100.00
46464;BME280;32161;48.148;-1.554;2023-03-24T05:40:26;99866.91;;;10.88;100.00
46464;BME280;32161;48.148;-1.554;2023-03-24T05:42:54;99872.66;;;10.92;99.19
46464;BME280;32161;48.148;-1.554;2023-03-24T05:45:21;99866.28;;;10.81;99.85
46464;BME280;32161;48.148;-1.554;2023-03-24T05:47:50;99872.38;;;10.71;100.00
46464;BME280;32161;48.148;-1.554;2023-03-24T05:50:17;99881.69;;;10.75;99.62
46464;BME280;32161;48.148;-1.554;2023-03-24T05:52:45;99877.00;;;10.71;100.00
46464;BME280;32161;48.148;-1.554;2023-03-24T05:55:14;99884.03;;;10.89;99.38
46464;BME280;32161;48.148;-1.554;2023-03-24T05:57:42;99878.28;;;10.85;99.45
46464;BME280;32161;48.148;-1.554;2023-03-24T06:00:11;99892.94;;;10.84;99.29
46464;BME280;32161;48.148;-1.554;2023-03-24T06:02:43;99883.59;;;10.97;99.14
46464;BME280;32161;48.148;-1.554;2023-03-24T06:05:11;99899.31;;;10.95;98.65
46464;BME280;32161;48.148;-1.554;2023-03-24T06:07:40;99896.53;;;10.90;98.77
46464;BME280;32161;48.148;-1.554;2023-03-24T06:10:09;99898.75;;;10.93;98.51
46464;BME280;32161;48.148;-1.554;2023-03-24T06:12:40;99898.81;;;10.98;98.20
46464;BME280;32161;48.148;-1.554;2023-03-24T06:15:09;99898.03;;;11.03;97.51
46464;BME280;32161;48.148;-1.554;2023-03-24T06:17:37;99912.34;;;10.93;98.23
46464;BME280;32161;48.148;-1.554;2023-03-24T06:20:09;99898.81;;;10.98;98.90
46464;BME280;32161;48.148;-1.554;2023-03-24T06:22:42;99908.09;;;11.02;98.78
46464;BME280;32161;48.148;-1.554;2023-03-24T06:25:11;99915.25;;;11.08;98.59
46464;BME280;32161;48.148;-1.554;2023-03-24T06:27:43;99916.22;;;10.97;98.95
46464;BME280;32161;48.148;-1.554;2023-03-24T06:30:14;99914.13;;;11.04;98.72
46464;BME280;32161;48.148;-1.554;2023-03-24T06:32:43;99911.72;;;11.08;98.53
46464;BME280;32161;48.148;-1.554;2023-03-24T06:35:12;99931.25;;;11.05;98.22
46464;BME280;32161;48.148;-1.554;2023-03-24T06:37:40;99920.13;;;11.06;98.49
46464;BME280;32161;48.148;-1.554;2023-03-24T06:40:09;99918.84;;;11.14;97.67
46464;BME280;32161;48.148;-1.554;2023-03-24T06:42:42;99919.31;;;11.06;97.27
46464;BME280;32161;48.148;-1.554;2023-03-24T06:45:10;99927.03;;;10.92;98.77
46464;BME280;32161;48.148;-1.554;2023-03-24T06:47:38;99930.19;;;11.06;98.83
46464;BME280;32161;48.148;-1.554;2023-03-24T06:50:06;99930.53;;;11.14;98.04
46464;BME280;32161;48.148;-1.554;2023-03-24T06:52:34;99944.72;;;11.16;98.00
46464;BME280;32161;48.148;-1.554;2023-03-24T06:55:02;99941.28;;;11.26;97.75
46464;BME280;32161;48.148;-1.554;2023-03-24T06:57:30;99955.66;;;11.21;97.92
46464;BME280;32161;48.148;-1.554;2023-03-24T06:59:59;99950.50;;;11.20;98.06
46464;BME280;32161;48.148;-1.554;2023-03-24T07:02:34;99945.91;;;11.25;98.18
46464;BME280;32161;48.148;-1.554;2023-03-24T07:05:03;99951.66;;;11.29;97.64
46464;BME280;32161;48.148;-1.554;2023-03-24T07:07:33;99953.75;;;11.22;97.86
46464;BME280;32161;48.148;-1.554;2023-03-24T07:10:02;99957.97;;;11.08;98.84
46464;BME280;32161;48.148;-1.554;2023-03-24T07:12:30;99968.34;;;11.11;99.87
46464;BME280;32161;48.148;-1.554;2023-03-24T07:14:59;99963.50;;;11.18;99.95
46464;BME280;32161;48.148;-1.554;2023-03-24T07:17:29;99968.06;;;11.34;100.00
46464;BME280;32161;48.148;-1.554;2023-03-24T07:19:56;99966.59;;;11.48;100.00
46464;BME280;32161;48.148;-1.554;2023-03-24T07:22:24;99976.72;;;11.53;100.00
46464;BME280;32161;48.148;-1.554;2023-03-24T07:24:52;99968.56;;;11.53;100.00
46464;BME280;32161;48.148;-1.554;2023-03-24T07:27:21;99981.44;;;11.63;100.00
46464;BME280;32161;48.148;-1.554;2023-03-24T07:29:48;99979.16;;;11.77;99.61
46464;BME280;32161;48.148;-1.554;2023-03-24T07:32:17;99984.78;;;11.70;99.86
46464;BME280;32161;48.148;-1.554;2023-03-24T07:34:45;99987.50;;;11.70;99.96
46464;BME280;32161;48.148;-1.554;2023-03-24T07:37:14;99988.53;;;11.64;100.00
46464;BME280;32161;48.148;-1.554;2023-03-24T07:39:42;99982.72;;;11.82;98.57
46464;BME280;32161;48.148;-1.554;2023-03-24T07:42:09;99983.97;;;11.69;98.86
46464;BME280;32161;48.148;-1.554;2023-03-24T07:44:37;99986.50;;;11.76;98.28
46464;BME280;32161;48.148;-1.554;2023-03-24T07:47:05;99993.97;;;11.86;97.46
46464;BME280;32161;48.148;-1.554;2023-03-24T07:49:33;99991.44;;;12.06;97.15
46464;BME280;32161;48.148;-1.554;2023-03-24T07:52:01;99998.47;;;12.02;96.59
46464;BME280;32161;48.148;-1.554;2023-03-24T07:54:31;99997.66;;;12.02;97.00
46464;BME280;32161;48.148;-1.554;2023-03-24T07:57:00;100005.63;;;12.08;97.53
46464;BME280;32161;48.148;-1.554;2023-03-24T07:59:27;100007.06;;;12.16;96.74
46464;BME280;32161;48.148;-1.554;2023-03-24T08:01:55;99999.41;;;12.13;96.33
46464;BME280;32161;48.148;-1.554;2023-03-24T08:04:23;100001.31;;;12.12;95.24
46464;BME280;32161;48.148;-1.554;2023-03-24T08:06:53;100005.66;;;12.13;95.40
46464;BME280;32161;48.148;-1.554;2023-03-24T08:09:20;100015.16;;;12.38;93.19
46464;BME280;32161;48.148;-1.554;2023-03-24T08:11:49;100015.03;;;12.23;93.43
46464;BME280;32161;48.148;-1.554;2023-03-24T08:14:16;100001.25;;;12.39;91.53
46464;BME280;32161;48.148;-1.554;2023-03-24T08:16:44;100009.09;;;12.31;92.56
46464;BME280;32161;48.148;-1.554;2023-03-24T08:19:12;100009.81;;;12.21;92.62
46464;BME280;32161;48.148;-1.554;2023-03-24T08:21:39;100001.81;;;12.09;93.50
46464;BME280;32161;48.148;-1.554;2023-03-24T08:24:08;100016.81;;;12.44;91.17
46464;BME280;32161;48.148;-1.554;2023-03-24T08:26:36;100021.50;;;12.16;92.67
46464;BME280;32161;48.148;-1.554;2023-03-24T08:29:03;100025.75;;;12.34;92.93
46464;BME280;32161;48.148;-1.554;2023-03-24T08:31:32;100027.75;;;12.49;90.39
46464;BME280;32161;48.148;-1.554;2023-03-24T08:34:00;100024.91;;;12.66;91.14
46464;BME280;32161;48.148;-1.554;2023-03-24T08:36:30;100034.50;;;12.74;89.77
46464;BME280;32161;48.148;-1.554;2023-03-24T08:38:57;100038.56;;;12.71;89.18
46464;BME280;32161;48.148;-1.554;2023-03-24T08:41:28;100041.28;;;12.71;89.69
46464;BME280;32161;48.148;-1.554;2023-03-24T08:44:00;100049.03;;;12.84;88.62
46464;BME280;32161;48.148;-1.554;2023-03-24T08:46:29;100052.41;;;12.64;89.32
46464;BME280;32161;48.148;-1.554;2023-03-24T08:48:57;100050.78;;;12.63;88.71
46464;BME280;32161;48.148;-1.554;2023-03-24T08:51:27;100055.72;;;13.04;88.80
46464;BME280;32161;48.148;-1.554;2023-03-24T08:53:54;100061.16;;;13.04;nan
46464;BME280;32161;48.148;-1.554;2023-03-24T08:56:22;100059.56;;;13.13;87.28
46464;BME280;32161;48.148;-1.554;2023-03-24T08:58:52;100061.75;;;13.11;86.93
46464;BME280;32161;48.148;-1.554;2023-03-24T09:01:20;100063.28;;;12.91;87.80
46464;BME280;32161;48.148;-1.554;2023-03-24T09:03:48;100072.91;;;13.04;86.49
46464;BME280;32161;48.148;-1.554;2023-03-24T09:06:16;100070.81;;;12.79;88.21
46464;BME280;32161;48.148;-1.554;2023-03-24T09:08:44;100061.38;;;12.97;87.56
46464;BME280;32161;48.148;-1.554;2023-03-24T09:11:15;100079.78;;;13.12;86.75
46464;BME280;32161;48.148;-1.554;2023-03-24T09:13:43;100070.91;;;13.32;86.22
46464;BME280;32161;48.148;-1.554;2023-03-24T09:16:12;100077.97;;;13.28;85.58
46464;BME280;32161;48.148;-1.554;2023-03-24T09:18:41;100078.94;;;13.11;85.96
46464;BME280;32161;48.148;-1.554;2023-03-24T09:21:09;100087.28;;;13.32;86.08
46464;BME280;32161;48.148;-1.554;2023-03-24T09:23:36;100085.53;;;13.63;84.90
46464;BME280;32161;48.148;-1.554;2023-03-24T09:26:05;100087.59;;;13.40;85.50
46464;BME280;32161;48.148;-1.554;2023-03-24T09:28:33;100084.47;;;13.69;84.14
46464;BME280;32161;48.148;-1.554;2023-03-24T09:31:03;100074.41;;;13.85;80.13
46464;BME280;32161;48.148;-1.554;2023-03-24T09:33:33;100077.41;;;13.83;80.46
46464;BME280;32161;48.148;-1.554;2023-03-24T09:36:02;100081.22;;;13.77;81.51
46464;BME280;32161;48.148;-1.554;2023-03-24T09:38:30;100096.78;;;13.77;81.32
46464;BME280;32161;48.148;-1.554;2023-03-24T09:41:01;100082.84;;;13.83;80.70
46464;BME280;32161;48.148;-1.554;2023-03-24T09:43:35;100085.03;;;13.76;80.75
46464;BME280;32161;48.148;-1.554;2023-03-24T09:46:10;100093.66;;;13.53;81.01
46464;BME280;32161;48.148;-1.554;2023-03-24T09:48:44;100085.22;;;13.59;82.45
46464;BME280;32161;48.148;-1.554;2023-03-24T09:51:20;100081.81;;;13.95;80.51
46464;BME280;32161;48.148;-1.554;2023-03-24T09:53:56;100083.25;;;14.23;80.19
46464;BME280;32161;48.148;-1.554;2023-03-24T09:56:36;100074.25;;;14.48;79.33
46464;BME280;32161;48.148;-1.554;2023-03-24T09:59:06;100070.72;;;14.52;81.41
46464;BME280;32161;48.148;-1.554;2023-03-24T10:01:36;100063.34;;;14.58;78.88
46464;BME280;32161;48.148;-1.554;2023-03-24T10:04:13;100073.16;;;14.38;79.55
46464;BME280;32161;48.148;-1.554;2023-03-24T10:06:41;100067.75;;;14.54;77.83
46464;BME280;32161;48.148;-1.554;2023-03-24T10:09:25;100082.47;;;14.37;75.14
46464;BME280;32161;48.148;-1.554;2023-03-24T10:14:59;100081.91;;;14.30;75.63
46464;BME280;32161;48.148;-1.554;2023-03-24T10:17:40;100085.19;;;14.32;77.19
46464;BME280;32161;48.148;-1.554;2023-03-24T10:20:26;100087.88;;;14.17;76.42
46464;BME280;32161;48.148;-1.554;2023-03-24T10:23:02;100074.25;;;14.22;76.67
46464;BME280;32161;48.148;-1.554;2023-03-24T10:25:45;100088.94;;;13.96;79.49
46464;BME280;32161;48.148;-1.554;2023-03-24T10:28:20;100086.22;;;14.01;79.39
46464;BME280;32161;48.148;-1.554;2023-03-24T10:30:50;100082.09;;;13.98;80.22
46464;BME280;32161;48.148;-1.554;2023-03-24T10:33:20;100086.16;;;13.90;80.02
46464;BME280;32161;48.148;-1.554;2023-03-24T10:35:57;100079.72;;;14.27;77.30
46464;BME280;32161;48.148;-1.554;2023-03-24T10:38:27;100082.72;;;14.36;77.49
46464;BME280;32161;48.148;-1.554;2023-03-24T10:40:55;100096.13;;;14.22;77.26
46464;BME280;32161;48.148;-1.554;2023-03-24T10:43:24;100099.91;;;14.16;78.53
46464;BME280;32161;48.148;-1.554;2023-03-24T10:45:55;100099.28;;;13.93;78.37
46464;BME280;32161;48.148;-1.554;2023-03-24T10:48:35;100110.75;;;13.90;79.85
46464;BME280;32161;48.148;-1.554;2023-03-24T10:51:16;100111.34;;;13.98;82.03
46464;BME280;32161;48.148;-1.554;2023-03-24T10:53:45;100107.69;;;13.72;82.32
46464;BME280;32161;48.148;-1.554;2023-03-24T10:56:35;100119.84;;;13.43;83.92
46464;BME280;32161;48.148;-1.554;2023-03-24T10:59:17;100111.44;;;13.18;81.31
46464;BME280;32161;48.148;-1.554;2023-03-24T11:01:45;100133.69;;;13.32;81.29
46464;BME280;32161;48.148;-1.554;2023-03-24T11:04:16;100122.34;;;13.50;80.05
46464;BME280;32161;48.148;-1.554;2023-03-24T11:07:00;100120.00;;;13.27;81.73
46464;BME280;32161;48.148;-1.554;2023-03-24T11:09:30;100126.09;;;13.39;82.48
46464;BME280;32161;48.148;-1.554;2023-03-24T11:12:10;100117.59;;;13.30;84.30
46464;BME280;32161;48.148;-1.554;2023-03-24T11:14:46;100120.13;;;13.47;85.05
46464;BME280;32161;48.148;-1.554;2023-03-24T11:17:15;100123.22;;;13.66;84.67
46464;BME280;32161;48.148;-1.554;2023-03-24T11:19:51;100121.31;;;13.72;83.91
46464;BME280;32161;48.148;-1.554;2023-03-24T11:22:21;100119.69;;;13.71;83.95
46464;BME280;32161;48.148;-1.554;2023-03-24T11:24:51;100131.44;;;13.66;84.63
46464;BME280;32161;48.148;-1.554;2023-03-24T11:27:19;100115.25;;;13.54;85.97
46464;BME280;32161;48.148;-1.554;2023-03-24T11:29:51;100114.16;;;13.60;84.61
46464;BME280;32161;48.148;-1.554;2023-03-24T11:32:23;100118.69;;;13.92;86.44
46464;BME280;32161;48.148;-1.554;2023-03-24T11:35:02;100120.38;;;14.03;87.15
46464;BME280;32161;48.148;-1.554;2023-03-24T11:37:34;100131.31;;;14.13;86.92
46464;BME280;32161;48.148;-1.554;2023-03-24T11:40:21;100117.22;;;14.52;86.42
46464;BME280;32161;48.148;-1.554;2023-03-24T11:42:53;100105.97;;;14.44;83.97
46464;BME280;32161;48.148;-1.554;2023-03-24T11:45:27;100097.28;;;14.77;85.02
46464;BME280;32161;48.148;-1.554;2023-03-24T11:47:57;100098.91;;;14.88;81.87
46464;BME280;32161;48.148;-1.554;2023-03-24T11:50:28;100101.94;;;14.92;83.34
46464;BME280;32161;48.148;-1.554;2023-03-24T11:53:04;100087.69;;;14.90;78.90
46464;BME280;32161;48.148;-1.554;2023-03-24T11:55:41;100076.72;;;15.05;80.53
46464;BME280;32161;48.148;-1.554;2023-03-24T11:58:21;100084.13;;;15.05;78.31
46464;BME280;32161;48.148;-1.554;2023-03-24T12:00:57;100079.44;;;15.16;78.25
46464;BME280;32161;48.148;-1.554;2023-03-24T12:06:42;100092.00;;;15.32;76.56
46464;BME280;32161;48.148;-1.554;2023-03-24T12:09:30;100092.78;;;15.48;76.55
46464;BME280;32161;48.148;-1.554;2023-03-24T12:12:20;100096.97;;;15.20;75.32
46464;BME280;32161;48.148;-1.554;2023-03-24T12:15:21;100107.63;;;15.06;75.67
46464;BME280;32161;48.148;-1.554;2023-03-24T12:18:02;100106.56;;;14.86;77.43
46464;BME280;32161;48.148;-1.554;2023-03-24T12:20:43;100120.78;;;14.68;78.37
46464;BME280;32161;48.148;-1.554;2023-03-24T12:23:28;100107.09;;;14.53;79.25
46464;BME280;32161;48.148;-1.554;2023-03-24T12:26:14;100113.63;;;14.41;80.31
46464;BME280;32161;48.148;-1.554;2023-03-24T12:35:46;100115.91;;;13.82;81.94
46464;BME280;32161;48.148;-1.554;2023-03-24T12:38:38;100119.81;;;13.96;80.30
46464;BME280;32161;48.148;-1.554;2023-03-24T12:41:27;100122.41;;;13.65;81.21
46464;BME280;32161;48.148;-1.554;2023-03-24T12:44:16;100115.69;;;13.36;81.23
46464;BME280;32161;48.148;-1.554;2023-03-24T12:46:54;100109.00;;;13.59;82.26
46464;BME280;32161;48.148;-1.554;2023-03-24T12:49:43;100099.13;;;13.53;85.40
46464;BME280;32161;48.148;-1.554;2023-03-24T12:52:36;100091.03;;;13.73;85.61
46464;BME280;32161;48.148;-1.554;2023-03-24T12:55:10;100095.78;;;14.08;81.97
46464;BME280;32161;48.148;-1.554;2023-03-24T12:57:47;100090.09;;;14.30;82.48
46464;BME280;32161;48.148;-1.554;2023-03-24T13:00:22;100092.34;;;14.64;80.67
46464;BME280;32161;48.148;-1.554;2023-03-24T13:02:55;100087.41;;;14.56;80.86
46464;BME280;32161;48.148;-1.554;2023-03-24T13:05:29;100087.16;;;14.73;78.85
46464;BME280;32161;48.148;-1.554;2023-03-24T13:08:02;100085.78;;;14.60;78.12
46464;BME280;32161;48.148;-1.554;2023-03-24T13:10:36;100096.16;;;14.99;79.06
46464;BME280;32161;48.148;-1.554;2023-03-24T13:13:12;100086.34;;;14.77;78.79
46464;BME280;32161;48.148;-1.554;2023-03-24T13:15:45;100077.00;;;14.99;80.98
46464;BME280;32161;48.148;-1.554;2023-03-24T13:18:26;100069.88;;;15.08;80.56
46464;BME280;32161;48.148;-1.554;2023-03-24T13:20:57;100070.38;;;15.30;78.48
46464;BME280;32161;48.148;-1.554;2023-03-24T13:23:44;100076.88;;;15.55;73.09
46464;BME280;32161;48.148;-1.554;2023-03-24T13:26:23;100062.06;;;15.56;71.10
46464;BME280;32161;48.148;-1.554;2023-03-24T13:29:09;100072.00;;;15.42;73.76
46464;BME280;32161;48.148;-1.554;2023-03-24T13:31:43;100072.03;;;15.21;74.34
46464;BME280;32161;48.148;-1.554;2023-03-24T13:34:24;100080.72;;;15.54;72.15
46464;BME280;32161;48.148;-1.554;2023-03-24T13:36:58;100069.47;;;15.60;72.92
46464;BME280;32161;48.148;-1.554;2023-03-24T13:39:28;100078.25;;;15.47;71.28
46464;BME280;32161;48.148;-1.554;2023-03-24T13:41:57;100060.25;;;15.31;73.59